Wetterstation Vordersexau
Wetterdaten: Woche 27.03.23 - 02.04.23 (KW13)
Datum Zeit Temp. A. Feuchte A. Luftdruck Regen Wind Richtung Taupunkt Windchill Windben
27.03.2023 00:00 7,0 C 86 % 1003,0 hPa 0,0 l/m 6,1 km/h (2 Bft) W 4,8 C 7,0 C 9,7 km/h (2 Bft)
27.03.2023 01:00 6,6 C 88 % 1003,8 hPa 0,0 l/m 8,6 km/h (2 Bft) W 4,8 C 4,8 C 11,2 km/h (2 Bft)
27.03.2023 02:00 6,1 C 94 % 1005,2 hPa 1,2 l/m 5,0 km/h (1 Bft) W-SW 5,2 C 6,1 C 6,1 km/h (2 Bft)
27.03.2023 03:00 6,0 C 97 % 1005,8 hPa 0,6 l/m 1,1 km/h (1 Bft) W 5,6 C 6,0 C 2,5 km/h (1 Bft)
27.03.2023 04:00 6,0 C 97 % 1006,8 hPa 0,3 l/m 1,1 km/h (1 Bft) NO 5,6 C 6,0 C 2,5 km/h (1 Bft)
27.03.2023 05:00 6,0 C 87 % 1008,1 hPa 0,0 l/m 7,2 km/h (2 Bft) N 4,0 C 5,3 C 13,3 km/h (3 Bft)
27.03.2023 06:00 5,0 C 85 % 1009,6 hPa 0,0 l/m 7,2 km/h (2 Bft) O-NO 2,7 C 4,3 C 11,2 km/h (2 Bft)
27.03.2023 07:00 4,8 C 77 % 1011,1 hPa 0,0 l/m 6,1 km/h (2 Bft) NO 1,1 C 4,8 C 9,7 km/h (2 Bft)
27.03.2023 08:00 4,8 C 75 % 1012,6 hPa 0,0 l/m 3,6 km/h (1 Bft) NO 0,8 C 4,8 C 7,2 km/h (2 Bft)
27.03.2023 09:00 4,5 C 75 % 1013,7 hPa 0,0 l/m 6,1 km/h (2 Bft) N-NO 0,5 C 4,5 C 14,8 km/h (3 Bft)
27.03.2023 10:00 5,1 C 68 % 1015,2 hPa 0,0 l/m 7,2 km/h (2 Bft) NO -0,3 C 4,4 C 14,8 km/h (3 Bft)
27.03.2023 11:00 6,2 C 60 % 1015,9 hPa 0,0 l/m 3,6 km/h (1 Bft) N -1,0 C 6,2 C 7,2 km/h (2 Bft)
27.03.2023 12:00 6,9 C 54 % 1016,6 hPa 0,0 l/m 5,0 km/h (1 Bft) W-NW -1,8 C 6,9 C 9,7 km/h (2 Bft)
27.03.2023 13:00 6,9 C 57 % 1017,1 hPa 0,0 l/m 3,6 km/h (1 Bft) N-NO -1,0 C 6,9 C 7,2 km/h (2 Bft)
27.03.2023 14:00 8,6 C 43 % 1017,5 hPa 0,0 l/m 5,0 km/h (1 Bft) NW -3,3 C 8,6 C 9,7 km/h (2 Bft)
27.03.2023 15:00 7,6 C 52 % 1017,9 hPa 0,0 l/m 3,6 km/h (1 Bft) NW -1,6 C 7,6 C 6,1 km/h (2 Bft)
27.03.2023 16:00 6,9 C 58 % 1017,9 hPa 0,0 l/m 2,5 km/h (1 Bft) N -0,8 C 6,9 C 3,6 km/h (1 Bft)
27.03.2023 17:00 6,8 C 62 % 1017,8 hPa 0,0 l/m 0,0 km/h (0 Bft) NO 0,0 C 6,8 C 2,5 km/h (1 Bft)
27.03.2023 18:00 5,3 C 76 % 1018,5 hPa 0,0 l/m 2,5 km/h (1 Bft) N 1,4 C 5,3 C 3,6 km/h (1 Bft)
27.03.2023 19:00 3,4 C 91 % 1019,6 hPa 0,9 l/m 0,0 km/h (0 Bft) SO 2,1 C 3,4 C 0,0 km/h (0 Bft)
27.03.2023 20:00 3,2 C 92 % 1020,1 hPa 0,0 l/m 3,6 km/h (1 Bft) O 2,0 C 3,2 C 6,1 km/h (2 Bft)
27.03.2023 21:00 2,6 C 95 % 1020,6 hPa 0,0 l/m 1,1 km/h (1 Bft) N 1,9 C 2,6 C 3,6 km/h (1 Bft)
27.03.2023 22:00 2,7 C 96 % 1021,0 hPa 0,0 l/m 0,0 km/h (0 Bft) N 2,1 C 2,7 C 0,0 km/h (0 Bft)
27.03.2023 23:00 2,1 C 97 % 1021,4 hPa 0,0 l/m 0,0 km/h (0 Bft) N 1,7 C 2,1 C 2,5 km/h (1 Bft)
28.03.2023 00:00 2,2 C 97 % 1022,0 hPa 0,0 l/m 0,0 km/h (0 Bft) N 1,8 C 2,2 C 2,5 km/h (1 Bft)
28.03.2023 01:00 2,3 C 97 % 1022,3 hPa 0,0 l/m 0,0 km/h (0 Bft) N 1,9 C 2,3 C 0,0 km/h (0 Bft)
28.03.2023 02:00 1,3 C 97 % 1022,9 hPa 0,0 l/m 0,0 km/h (0 Bft) N 0,9 C 1,3 C 2,5 km/h (1 Bft)
28.03.2023 03:00 0,7 C 98 % 1022,9 hPa 0,0 l/m 0,0 km/h (0 Bft) N 0,4 C 0,7 C 0,0 km/h (0 Bft)
28.03.2023 04:00 0,5 C 98 % 1022,8 hPa 0,0 l/m 0,0 km/h (0 Bft) N 0,2 C 0,5 C 0,0 km/h (0 Bft)
28.03.2023 05:00 -0,4 C 98 % 1022,4 hPa 0,0 l/m 0,0 km/h (0 Bft) N -0,7 C -0,4 C 0,0 km/h (0 Bft)
28.03.2023 06:00 -0,3 C 98 % 1022,6 hPa 0,0 l/m 0,0 km/h (0 Bft) N -0,6 C -0,3 C 0,0 km/h (0 Bft)
28.03.2023 07:00 -0,9 C 98 % 1023,1 hPa 0,0 l/m 0,0 km/h (0 Bft) O-SO -1,2 C -0,9 C 0,0 km/h (0 Bft)
28.03.2023 08:00 -0,1 C 99 % 1023,3 hPa 0,0 l/m 3,6 km/h (1 Bft) O-SO -0,2 C -0,1 C 6,1 km/h (2 Bft)
28.03.2023 09:00 3,5 C 89 % 1023,5 hPa 0,0 l/m 3,6 km/h (1 Bft) SO 1,9 C 3,5 C 6,1 km/h (2 Bft)
28.03.2023 10:00 6,6 C 77 % 1023,7 hPa 0,0 l/m 1,1 km/h (1 Bft) SW 2,9 C 6,6 C 2,5 km/h (1 Bft)
28.03.2023 11:00 6,9 C 56 % 1023,5 hPa 0,0 l/m 2,5 km/h (1 Bft) N-NW -1,3 C 6,9 C 3,6 km/h (1 Bft)
28.03.2023 12:00 8,3 C 52 % 1022,9 hPa 0,0 l/m 1,1 km/h (1 Bft) SW -1,0 C 8,3 C 3,6 km/h (1 Bft)
28.03.2023 13:00 8,7 C 53 % 1022,5 hPa 0,0 l/m 5,0 km/h (1 Bft) W-NW -0,3 C 8,7 C 7,2 km/h (2 Bft)
28.03.2023 14:00 10,1 C 52 % 1021,7 hPa 0,0 l/m 3,6 km/h (1 Bft) W-SW 0,7 C 10,1 C 6,1 km/h (2 Bft)
28.03.2023 15:00 11,0 C 49 % 1021,2 hPa 0,0 l/m 2,5 km/h (1 Bft) W 0,7 C 11,0 C 6,1 km/h (2 Bft)
28.03.2023 16:00 10,8 C 48 % 1020,1 hPa 0,0 l/m 1,1 km/h (1 Bft) W 0,2 C 10,8 C 3,6 km/h (1 Bft)
28.03.2023 17:00 11,6 C 51 % 1019,3 hPa 0,0 l/m 6,1 km/h (2 Bft) N 1,8 C 11,6 C 7,2 km/h (2 Bft)
28.03.2023 18:00 11,2 C 50 % 1018,8 hPa 0,0 l/m 0,0 km/h (0 Bft) N 1,2 C 11,2 C 0,0 km/h (0 Bft)
28.03.2023 19:00 9,8 C 63 % 1018,1 hPa 0,0 l/m 0,0 km/h (0 Bft) O-SO 3,1 C 9,8 C 0,0 km/h (0 Bft)
28.03.2023 20:00 8,3 C 71 % 1017,7 hPa 0,0 l/m 1,1 km/h (1 Bft) O-SO 3,4 C 8,3 C 3,6 km/h (1 Bft)
28.03.2023 21:00 7,8 C 74 % 1017,7 hPa 0,0 l/m 1,1 km/h (1 Bft) N 3,5 C 7,8 C 2,5 km/h (1 Bft)
28.03.2023 22:00 7,3 C 77 % 1017,4 hPa 0,0 l/m 0,0 km/h (0 Bft) O 3,5 C 7,3 C 0,0 km/h (0 Bft)
28.03.2023 23:00 8,5 C 63 % 1016,9 hPa 0,0 l/m 2,5 km/h (1 Bft) O-SO 1,9 C 8,5 C 3,6 km/h (1 Bft)
29.03.2023 00:00 7,4 C 76 % 1016,3 hPa 0,0 l/m 1,1 km/h (1 Bft) O-SO 3,5 C 7,4 C 2,5 km/h (1 Bft)
29.03.2023 01:00 7,2 C 77 % 1016,3 hPa 0,0 l/m 0,0 km/h (0 Bft) O 3,4 C 7,2 C 0,0 km/h (0 Bft)
29.03.2023 02:00 7,9 C 72 % 1015,9 hPa 0,0 l/m 2,5 km/h (1 Bft) N 3,2 C 7,9 C 3,6 km/h (1 Bft)
29.03.2023 03:00 7,7 C 74 % 1015,6 hPa 0,0 l/m 0,0 km/h (0 Bft) N 3,4 C 7,7 C 0,0 km/h (0 Bft)
29.03.2023 04:00 7,3 C 76 % 1015,2 hPa 0,0 l/m 0,0 km/h (0 Bft) N 3,4 C 7,3 C 2,5 km/h (1 Bft)
29.03.2023 05:00 7,4 C 77 % 1014,9 hPa 0,0 l/m 0,0 km/h (0 Bft) N 3,6 C 7,4 C 0,0 km/h (0 Bft)
29.03.2023 06:00 7,2 C 81 % 1014,8 hPa 0,0 l/m 0,0 km/h (0 Bft) N 4,2 C 7,2 C 2,5 km/h (1 Bft)
29.03.2023 07:00 7,2 C 83 % 1015,1 hPa 0,0 l/m 0,0 km/h (0 Bft) W-NW 4,5 C 7,2 C 0,0 km/h (0 Bft)
29.03.2023 08:00 9,6 C 66 % 1014,8 hPa 0,0 l/m 2,5 km/h (1 Bft) W 3,6 C 9,6 C 3,6 km/h (1 Bft)
29.03.2023 09:00 11,8 C 54 % 1015,3 hPa 0,0 l/m 6,1 km/h (2 Bft) W-SW 2,8 C 11,8 C 9,7 km/h (2 Bft)
29.03.2023 10:00 12,9 C 53 % 1015,5 hPa 0,0 l/m 6,1 km/h (2 Bft) W-SW 3,6 C 12,9 C 9,7 km/h (2 Bft)
29.03.2023 11:00 13,5 C 51 % 1015,3 hPa 0,0 l/m 6,1 km/h (2 Bft) W-SW 3,6 C 13,5 C 9,7 km/h (2 Bft)
29.03.2023 12:00 14,0 C 52 % 1015,1 hPa 0,0 l/m 6,1 km/h (2 Bft) W-SW 4,3 C 14,0 C 9,7 km/h (2 Bft)
29.03.2023 13:00 15,0 C 47 % 1014,5 hPa 0,0 l/m 9,7 km/h (2 Bft) S-SW 3,8 C 13,3 C 14,8 km/h (3 Bft)
29.03.2023 14:00 16,8 C 45 % 1014,1 hPa 0,0 l/m 12,2 km/h (2 Bft) S-SW 4,8 C 14,3 C 18,4 km/h (3 Bft)
29.03.2023 15:00 17,3 C 48 % 1013,8 hPa 0,0 l/m 6,1 km/h (2 Bft) SW 6,2 C 17,3 C 9,7 km/h (2 Bft)
29.03.2023 16:00 19,1 C 43 % 1013,2 hPa 0,0 l/m 9,7 km/h (2 Bft) W 6,2 C 17,8 C 14,8 km/h (3 Bft)
29.03.2023 17:00 17,9 C 47 % 1012,9 hPa 0,0 l/m 6,1 km/h (2 Bft) W-SW 6,4 C 17,9 C 13,3 km/h (3 Bft)
29.03.2023 18:00 17,7 C 47 % 1012,6 hPa 0,0 l/m 3,6 km/h (1 Bft) S-SO 6,2 C 17,7 C 6,1 km/h (2 Bft)
29.03.2023 19:00 17,2 C 46 % 1012,3 hPa 0,0 l/m 2,5 km/h (1 Bft) SO 5,5 C 17,2 C 3,6 km/h (1 Bft)
29.03.2023 20:00 16,6 C 49 % 1012,1 hPa 0,0 l/m 2,5 km/h (1 Bft) O-SO 5,8 C 16,6 C 2,5 km/h (1 Bft)
29.03.2023 21:00 14,7 C 61 % 1011,8 hPa 0,0 l/m 3,6 km/h (1 Bft) S-SO 7,3 C 14,7 C 3,6 km/h (1 Bft)
29.03.2023 22:00 16,5 C 56 % 1011,5 hPa 0,0 l/m 1,1 km/h (1 Bft) NO 7,7 C 16,5 C 3,6 km/h (1 Bft)
29.03.2023 23:00 14,4 C 66 % 1011,0 hPa 0,0 l/m 5,0 km/h (1 Bft) NO 8,1 C 14,4 C 6,1 km/h (2 Bft)
30.03.2023 00:00 13,6 C 72 % 1010,3 hPa 0,0 l/m 1,1 km/h (1 Bft) NO 8,6 C 13,6 C 2,5 km/h (1 Bft)
30.03.2023 01:00 13,5 C 75 % 1009,7 hPa 0,0 l/m 0,0 km/h (0 Bft) O-SO 9,2 C 13,5 C 0,0 km/h (0 Bft)
30.03.2023 02:00 12,8 C 80 % 1009,3 hPa 0,0 l/m 1,1 km/h (1 Bft) N 9,4 C 12,8 C 2,5 km/h (1 Bft)
30.03.2023 03:00 13,5 C 81 % 1010,1 hPa 0,0 l/m 0,0 km/h (0 Bft) SO 10,3 C 13,5 C 2,5 km/h (1 Bft)
30.03.2023 04:00 12,8 C 90 % 1009,0 hPa 0,3 l/m 3,6 km/h (1 Bft) O 11,2 C 12,8 C 6,1 km/h (2 Bft)
30.03.2023 05:00 13,3 C 85 % 1007,6 hPa 0,0 l/m 2,5 km/h (1 Bft) O-SO 10,8 C 13,3 C 3,6 km/h (1 Bft)
30.03.2023 06:00 12,8 C 88 % 1006,9 hPa 0,0 l/m 1,1 km/h (1 Bft) O-SO 10,9 C 12,8 C 3,6 km/h (1 Bft)
30.03.2023 07:00 12,5 C 91 % 1007,7 hPa 0,0 l/m 1,1 km/h (1 Bft) NW 11,1 C 12,5 C 2,5 km/h (1 Bft)
30.03.2023 08:00 13,4 C 84 % 1009,2 hPa 0,3 l/m 1,1 km/h (1 Bft) O 10,8 C 13,4 C 2,5 km/h (1 Bft)
30.03.2023 09:00 12,6 C 89 % 1009,6 hPa 0,3 l/m 1,1 km/h (1 Bft) N 10,8 C 12,6 C 2,5 km/h (1 Bft)
30.03.2023 10:00 11,9 C 93 % 1010,6 hPa 2,4 l/m 0,0 km/h (0 Bft) SO 10,8 C 11,9 C 0,0 km/h (0 Bft)
30.03.2023 11:00 12,4 C 92 % 1011,0 hPa 1,5 l/m 3,6 km/h (1 Bft) W-SW 11,1 C 12,4 C 6,1 km/h (2 Bft)
30.03.2023 12:00 13,2 C 81 % 1011,2 hPa 0,0 l/m 8,6 km/h (2 Bft) SW 10,0 C 11,9 C 13,3 km/h (3 Bft)
30.03.2023 13:00 13,1 C 84 % 1011,2 hPa 0,3 l/m 12,2 km/h (2 Bft) S-SW 10,5 C 10,0 C 17,3 km/h (3 Bft)
30.03.2023 14:00 14,8 C 75 % 1011,3 hPa 0,0 l/m 12,2 km/h (2 Bft) W-SW 10,4 C 12,0 C 20,9 km/h (4 Bft)
30.03.2023 15:00 15,0 C 77 % 1010,8 hPa 0,0 l/m 6,1 km/h (2 Bft) W 11,0 C 15,0 C 7,2 km/h (2 Bft)
30.03.2023 16:00 12,9 C 83 % 1010,9 hPa 2,4 l/m 9,7 km/h (2 Bft) S-SO 10,1 C 11,0 C 13,3 km/h (3 Bft)
30.03.2023 17:00 14,1 C 80 % 1010,5 hPa 1,5 l/m 11,2 km/h (2 Bft) W-SW 10,7 C 11,6 C 14,8 km/h (3 Bft)
30.03.2023 18:00 15,2 C 73 % 1009,9 hPa 0,0 l/m 7,2 km/h (2 Bft) S-SW 10,4 C 14,8 C 9,7 km/h (2 Bft)
30.03.2023 19:00 14,6 C 70 % 1009,8 hPa 0,0 l/m 7,2 km/h (2 Bft) SW 9,2 C 14,1 C 11,2 km/h (2 Bft)
30.03.2023 20:00 13,7 C 69 % 1010,2 hPa 0,0 l/m 6,1 km/h (2 Bft) SW 8,1 C 13,7 C 7,2 km/h (2 Bft)
30.03.2023 21:00 13,3 C 72 % 1010,5 hPa 0,0 l/m 6,1 km/h (2 Bft) SW 8,4 C 13,3 C 11,2 km/h (2 Bft)
30.03.2023 22:00 12,4 C 75 % 1010,1 hPa 0,0 l/m 1,1 km/h (1 Bft) O-NO 8,1 C 12,4 C 2,5 km/h (1 Bft)
30.03.2023 23:00 11,1 C 83 % 1009,4 hPa 0,0 l/m 2,5 km/h (1 Bft) N 8,3 C 11,1 C 3,6 km/h (1 Bft)
31.03.2023 00:00 10,8 C 83 % 1008,7 hPa 0,0 l/m 0,0 km/h (0 Bft) W-SW 8,0 C 10,8 C 2,5 km/h (1 Bft)
31.03.2023 01:00 13,9 C 67 % 1008,0 hPa 0,0 l/m 6,1 km/h (2 Bft) W-SW 7,9 C 13,9 C 9,7 km/h (2 Bft)
31.03.2023 02:00 13,7 C 68 % 1007,1 hPa 0,0 l/m 3,6 km/h (1 Bft) S 7,9 C 13,7 C 6,1 km/h (2 Bft)
31.03.2023 03:00 12,4 C 76 % 1006,7 hPa 0,0 l/m 6,1 km/h (2 Bft) SO 8,3 C 12,4 C 9,7 km/h (2 Bft)
31.03.2023 04:00 11,6 C 80 % 1005,0 hPa 0,0 l/m 1,1 km/h (1 Bft) O 8,3 C 11,6 C 3,6 km/h (1 Bft)
31.03.2023 05:00 10,6 C 87 % 1002,7 hPa 0,0 l/m 2,5 km/h (1 Bft) N 8,5 C 10,6 C 3,6 km/h (1 Bft)
31.03.2023 06:00 10,4 C 88 % 1001,2 hPa 0,0 l/m 0,0 km/h (0 Bft) N 8,5 C 10,4 C 2,5 km/h (1 Bft)
31.03.2023 07:00 9,8 C 95 % 1001,7 hPa 1,5 l/m 0,0 km/h (0 Bft) W-SW 9,0 C 9,8 C 2,5 km/h (1 Bft)
31.03.2023 08:00 10,2 C 92 % 1003,5 hPa 4,2 l/m 9,7 km/h (2 Bft) S-SW 9,0 C 8,0 C 14,8 km/h (3 Bft)
31.03.2023 09:00 11,8 C 84 % 1002,3 hPa 0,3 l/m 8,6 km/h (2 Bft) S-SW 9,2 C 10,4 C 11,2 km/h (2 Bft)
31.03.2023 10:00 13,1 C 78 % 1002,1 hPa 0,0 l/m 14,8 km/h (3 Bft) W-SW 9,4 C 9,0 C 20,9 km/h (4 Bft)
31.03.2023 11:00 13,6 C 68 % 1001,7 hPa 0,0 l/m 13,3 km/h (3 Bft) W-SW 7,8 C 10,1 C 17,3 km/h (3 Bft)
31.03.2023 12:00 14,9 C 58 % 1000,9 hPa 0,0 l/m 24,5 km/h (4 Bft) O-NO 6,7 C 8,6 C 42,8 km/h (6 Bft)
31.03.2023 13:00 10,0 C 84 % 1001,2 hPa 0,0 l/m 5,0 km/h (1 Bft) W-SW 7,4 C 10,0 C 9,7 km/h (2 Bft)
31.03.2023 14:00 13,1 C 63 % 1000,0 hPa 0,3 l/m 19,4 km/h (3 Bft) W 6,2 C 7,5 C 29,5 km/h (5 Bft)
31.03.2023 15:00 13,7 C 63 % 999,8 hPa 0,3 l/m 24,5 km/h (4 Bft) W-SW 6,8 C 7,0 C 33,1 km/h (5 Bft)
31.03.2023 16:00 10,7 C 82 % 1000,7 hPa 0,9 l/m 3,6 km/h (1 Bft) W-SW 7,8 C 10,7 C 6,1 km/h (2 Bft)
31.03.2023 17:00 11,2 C 76 % 1000,4 hPa 0,0 l/m 13,3 km/h (3 Bft) S-SW 7,1 C 7,3 C 20,9 km/h (4 Bft)
31.03.2023 18:00 11,6 C 72 % 999,8 hPa 0,0 l/m 13,3 km/h (3 Bft) SW 6,7 C 7,8 C 20,9 km/h (4 Bft)
31.03.2023 19:00 11,0 C 77 % 1000,6 hPa 0,3 l/m 12,2 km/h (2 Bft) W-SW 7,1 C 7,6 C 14,8 km/h (3 Bft)
31.03.2023 20:00 10,6 C 79 % 1000,4 hPa 0,0 l/m 12,2 km/h (2 Bft) SW 7,1 C 7,1 C 17,3 km/h (3 Bft)
31.03.2023 21:00 10,5 C 74 % 1000,9 hPa 0,0 l/m 17,3 km/h (3 Bft) W-SW 6,1 C 4,9 C 24,5 km/h (4 Bft)
31.03.2023 22:00 8,8 C 89 % 1001,6 hPa 1,2 l/m 8,6 km/h (2 Bft) W-SW 7,1 C 7,2 C 13,3 km/h (3 Bft)
31.03.2023 23:00 9,8 C 81 % 1001,8 hPa 0,0 l/m 13,3 km/h (3 Bft) W-SW 6,7 C 5,6 C 25,6 km/h (4 Bft)
01.04.2023 00:00 9,0 C 88 % 1002,0 hPa 0,9 l/m 12,2 km/h (2 Bft) S-SW 7,1 C 5,3 C 17,3 km/h (3 Bft)
01.04.2023 01:00 8,9 C 85 % 1002,3 hPa 0,0 l/m 12,2 km/h (2 Bft) W-SW 6,5 C 5,1 C 22,0 km/h (4 Bft)
01.04.2023 02:00 8,0 C 88 % 1002,2 hPa 0,0 l/m 9,7 km/h (2 Bft) W-SW 6,1 C 5,6 C 13,3 km/h (3 Bft)
01.04.2023 03:00 8,0 C 91 % 1001,8 hPa 0,9 l/m 15,8 km/h (3 Bft) SW 6,6 C 2,4 C 22,0 km/h (4 Bft)
01.04.2023 04:00 8,9 C 85 % 1001,7 hPa 0,0 l/m 17,3 km/h (3 Bft) SW 6,5 C 2,8 C 28,1 km/h (4 Bft)
01.04.2023 05:00 7,9 C 93 % 1002,0 hPa 0,3 l/m 11,2 km/h (2 Bft) W-SW 6,8 C 4,5 C 17,3 km/h (3 Bft)
01.04.2023 06:00 8,1 C 88 % 1001,8 hPa 0,3 l/m 13,3 km/h (3 Bft) SW 6,2 C 3,6 C 22,0 km/h (4 Bft)
01.04.2023 07:00 8,4 C 86 % 1001,4 hPa 0,0 l/m 15,8 km/h (3 Bft) SW 6,2 C 2,8 C 24,5 km/h (4 Bft)
01.04.2023 08:00 8,9 C 84 % 1001,4 hPa 0,0 l/m 14,8 km/h (3 Bft) W-SW 6,3 C 3,9 C 22,0 km/h (4 Bft)
01.04.2023 09:00 9,2 C 84 % 1001,3 hPa 0,0 l/m 19,4 km/h (3 Bft) W-SW 6,6 C 2,5 C 29,5 km/h (5 Bft)
01.04.2023 10:00 9,4 C 83 % 1001,7 hPa 0,0 l/m 9,7 km/h (2 Bft) SW 6,7 C 7,1 C 18,4 km/h (3 Bft)
01.04.2023 11:00 9,4 C 85 % 1001,9 hPa 0,0 l/m 15,8 km/h (3 Bft) W-SW 7,0 C 4,1 C 25,6 km/h (4 Bft)
01.04.2023 12:00 10,1 C 81 % 1002,2 hPa 0,0 l/m 29,5 km/h (5 Bft) S-SW 7,0 C 0,9 C 39,2 km/h (6 Bft)
01.04.2023 13:00 9,8 C 83 % 1002,3 hPa 0,0 l/m 15,8 km/h (3 Bft) S-SW 7,1 C 4,6 C 31,7 km/h (5 Bft)
01.04.2023 14:00 10,0 C 83 % 1002,6 hPa 0,0 l/m 9,7 km/h (2 Bft) W-SW 7,2 C 7,8 C 14,8 km/h (3 Bft)
01.04.2023 15:00 10,5 C 81 % 1002,6 hPa 0,0 l/m 11,2 km/h (2 Bft) W-SW 7,4 C 7,5 C 17,3 km/h (3 Bft)
01.04.2023 16:00 11,8 C 77 % 1002,4 hPa 0,0 l/m 12,2 km/h (2 Bft) W-SW 7,9 C 8,5 C 17,3 km/h (3 Bft)
01.04.2023 17:00 11,1 C 81 % 1002,7 hPa 0,0 l/m 13,3 km/h (3 Bft) SW 8,0 C 7,2 C 22,0 km/h (4 Bft)
01.04.2023 18:00 9,8 C 90 % 1003,1 hPa 0,3 l/m 3,6 km/h (1 Bft) SW 8,2 C 9,8 C 6,1 km/h (2 Bft)
01.04.2023 19:00 10,8 C 80 % 1003,0 hPa 0,0 l/m 6,1 km/h (2 Bft) SW 7,5 C 10,8 C 9,7 km/h (2 Bft)
01.04.2023 20:00 9,5 C 84 % 1003,6 hPa 0,0 l/m 6,1 km/h (2 Bft) SW 6,9 C 9,5 C 7,2 km/h (2 Bft)
01.04.2023 21:00 8,8 C 83 % 1004,2 hPa 0,0 l/m 3,6 km/h (1 Bft) W-SW 6,1 C 8,8 C 7,2 km/h (2 Bft)
01.04.2023 22:00 9,3 C 78 % 1004,6 hPa 0,0 l/m 8,6 km/h (2 Bft) W 5,7 C 7,7 C 11,2 km/h (2 Bft)
01.04.2023 23:00 8,7 C 85 % 1005,6 hPa 0,0 l/m 5,0 km/h (1 Bft) W 6,3 C 8,7 C 7,2 km/h (2 Bft)
02.04.2023 00:00 8,4 C 86 % 1005,8 hPa 0,0 l/m 3,6 km/h (1 Bft) W 6,2 C 8,4 C 7,2 km/h (2 Bft)
02.04.2023 01:00 8,0 C 89 % 1005,9 hPa 0,0 l/m 1,1 km/h (1 Bft) W-SW 6,3 C 8,0 C 2,5 km/h (1 Bft)
02.04.2023 02:00 8,3 C 88 % 1006,2 hPa 0,0 l/m 2,5 km/h (1 Bft) W-SW 6,4 C 8,3 C 3,6 km/h (1 Bft)
02.04.2023 03:00 8,4 C 87 % 1006,3 hPa 0,0 l/m 3,6 km/h (1 Bft) W-SW 6,4 C 8,4 C 3,6 km/h (1 Bft)
02.04.2023 04:00 8,5 C 87 % 1006,6 hPa 0,0 l/m 7,2 km/h (2 Bft) W-SW 6,5 C 7,9 C 11,2 km/h (2 Bft)
02.04.2023 05:00 8,0 C 90 % 1007,0 hPa 0,3 l/m 5,0 km/h (1 Bft) SW 6,5 C 8,0 C 6,1 km/h (2 Bft)
02.04.2023 06:00 8,1 C 89 % 1007,6 hPa 0,3 l/m 2,5 km/h (1 Bft) SW 6,4 C 8,1 C 6,1 km/h (2 Bft)
02.04.2023 07:00 7,8 C 87 % 1008,3 hPa 0,0 l/m 8,6 km/h (2 Bft) S-SW 5,8 C 6,1 C 14,8 km/h (3 Bft)
02.04.2023 08:00 7,7 C 90 % 1008,6 hPa 0,9 l/m 2,5 km/h (1 Bft) S 6,2 C 7,7 C 3,6 km/h (1 Bft)
02.04.2023 09:00 8,7 C 90 % 1009,3 hPa 0,3 l/m 3,6 km/h (1 Bft) W 7,2 C 8,7 C 6,1 km/h (2 Bft)
02.04.2023 10:00 9,6 C 87 % 1009,8 hPa 0,0 l/m 9,7 km/h (2 Bft) W-SW 7,5 C 7,3 C 13,3 km/h (3 Bft)
02.04.2023 11:00 10,7 C 86 % 1010,3 hPa 0,0 l/m 5,0 km/h (1 Bft) SW 8,5 C 10,7 C 6,1 km/h (2 Bft)
02.04.2023 12:00 12,1 C 75 % 1010,7 hPa 0,0 l/m 5,0 km/h (1 Bft) W-SW 7,8 C 12,1 C 7,2 km/h (2 Bft)
02.04.2023 13:00 11,8 C 76 % 1011,1 hPa 0,0 l/m 6,1 km/h (2 Bft) N 7,7 C 11,8 C 9,7 km/h (2 Bft)
02.04.2023 14:00 11,8 C 79 % 1011,6 hPa 0,0 l/m 3,6 km/h (1 Bft) NO 8,3 C 11,8 C 6,1 km/h (2 Bft)
02.04.2023 15:00 11,5 C 77 % 1012,0 hPa 0,0 l/m 1,1 km/h (1 Bft) NO 7,6 C 11,5 C 3,6 km/h (1 Bft)
02.04.2023 16:00 10,7 C 89 % 1012,5 hPa 1,8 l/m 1,1 km/h (1 Bft) SO 9,0 C 10,7 C 2,5 km/h (1 Bft)
02.04.2023 17:00 9,0 C 91 % 1000,4 hPa 2,7 l/m 1,1 km/h (1 Bft) N 7,6 C 9,0 C 2,5 km/h (1 Bft)
02.04.2023 18:00 8,9 C 93 % 1013,5 hPa 0,6 l/m 0,0 km/h (0 Bft) O-SO 7,8 C 8,9 C 2,5 km/h (1 Bft)
02.04.2023 19:00 8,5 C 94 % 1014,1 hPa 0,0 l/m 2,5 km/h (1 Bft) N 7,6 C 8,5 C 2,5 km/h (1 Bft)
02.04.2023 20:00 7,9 C 97 % 1015,1 hPa 0,0 l/m 0,0 km/h (0 Bft) N 7,5 C 7,9 C 0,0 km/h (0 Bft)
02.04.2023 21:00 7,7 C 98 % 1016,1 hPa 0,0 l/m 0,0 km/h (0 Bft) O-SO 7,4 C 7,7 C 0,0 km/h (0 Bft)
02.04.2023 22:00 7,5 C 99 % 1016,7 hPa 0,0 l/m 1,1 km/h (1 Bft) NW 7,4 C 7,5 C 2,5 km/h (1 Bft)
02.04.2023 23:00 7,3 C 99 % 1017,2 hPa 0,0 l/m 2,5 km/h (1 Bft) O-NO 7,2 C 7,3 C 3,6 km/h (1 Bft)
Min-Datum _ 28.03.23 27.03.23 31.03.23 - 27.03.23 - 27.03.23 28.03.23 27.03.23
_ Min-Zeit 07:37 14:37 15:37 - 17:37 - 14:37 07:37 19:37
Minimum _ -0,9 C 43 % 999,8 hPa - 0,0 km/h (0 Bft) - -3,3 C -0,9 C 0,0 km/h (0 Bft)
Max-Datum _ 29.03.23 28.03.23 28.03.23 31.03.23 01.04.23 - 30.03.23 29.03.23 31.03.23
_ Max-Zeit 16:37 08:37 10:37 08:37 12:37 - 04:37 17:37 12:37
Maximum _ 19,1 C 99 % 1023,7 hPa 4,2 l/m 29,5 km/h
S-SW (5 Bft)
- 11,2 C 17,9 C 42,8 km/h
O-NO (6 Bft)
Durchschnitt _ 9,6 C 78 % 1010,6 hPa #30,6 l/m 5,5 km/h (1 Bft) W-SW 5,6 C 8,6 C 8,9 km/h (2 Bft)
www.sexauwetter.de